createdAt,value
2022-09-26T00:00:12.732Z,23.40
2022-09-26T00:02:43.218Z,23.30
2022-09-26T00:05:14.117Z,23.30
2022-09-26T00:07:44.439Z,23.20
2022-09-26T00:10:14.936Z,23.20
2022-09-26T00:12:45.561Z,23.20
2022-09-26T00:15:15.812Z,23.10
2022-09-26T00:17:46.203Z,23.10
2022-09-26T00:20:16.501Z,23.10
2022-09-26T00:22:46.800Z,23.10
2022-09-26T00:25:17.679Z,23.10
2022-09-26T00:27:48.023Z,23.00
2022-09-26T00:30:18.512Z,23.10
2022-09-26T00:32:49.329Z,23.10
2022-09-26T00:35:19.686Z,23.00
2022-09-26T00:37:49.941Z,23.10
2022-09-26T00:40:20.805Z,23.10
2022-09-26T00:42:54.084Z,23.20
2022-09-26T00:45:28.484Z,23.20
2022-09-26T00:48:03.384Z,23.20
2022-09-26T00:50:40.231Z,23.30
2022-09-26T00:53:17.588Z,23.40
2022-09-26T00:55:54.464Z,23.40
2022-09-26T00:58:32.115Z,23.40
2022-09-26T01:01:04.167Z,23.30
2022-09-26T01:03:36.464Z,23.40
2022-09-26T01:06:07.222Z,23.40
2022-09-26T01:08:44.396Z,23.50
2022-09-26T01:11:17.474Z,23.40
2022-09-26T01:13:48.933Z,23.40
2022-09-26T01:16:19.324Z,23.50
2022-09-26T01:18:50.954Z,23.50
2022-09-26T01:21:50.305Z,23.50
2022-09-26T01:24:43.446Z,23.50
2022-09-26T01:27:43.398Z,23.50
2022-09-26T01:30:21.319Z,23.60
2022-09-26T01:33:24.187Z,23.60
2022-09-26T01:36:23.332Z,23.60
2022-09-26T01:39:24.110Z,23.70
2022-09-26T01:42:13.831Z,23.80
2022-09-26T01:45:15.203Z,24.00
2022-09-26T01:47:59.141Z,24.10
2022-09-26T01:50:43.832Z,24.20
2022-09-26T01:53:44.674Z,24.30
2022-09-26T01:56:22.636Z,24.40
2022-09-26T01:59:03.874Z,24.40
2022-09-26T02:01:42.457Z,24.40
2022-09-26T02:04:20.476Z,24.40
2022-09-26T02:07:03.165Z,24.40
2022-09-26T02:09:51.229Z,24.60
2022-09-26T02:12:27.337Z,24.90
2022-09-26T02:15:03.180Z,24.90
2022-09-26T02:17:38.422Z,25.00
2022-09-26T02:20:18.112Z,25.00
2022-09-26T02:22:49.011Z,25.10
2022-09-26T02:25:19.649Z,25.30
2022-09-26T02:27:52.062Z,25.40
2022-09-26T02:30:22.844Z,25.40
2022-09-26T02:32:53.331Z,25.50
2022-09-26T02:35:36.989Z,25.50
2022-09-26T02:38:07.701Z,25.60
2022-09-26T02:40:56.577Z,25.50
2022-09-26T02:43:46.791Z,25.50
2022-09-26T02:46:48.278Z,25.40
2022-09-26T02:49:48.901Z,25.40
2022-09-26T02:52:45.438Z,25.50
2022-09-26T02:55:39.903Z,25.50
2022-09-26T02:58:29.624Z,25.50
2022-09-26T03:01:20.333Z,25.60
2022-09-26T03:04:07.164Z,25.80
2022-09-26T03:06:42.252Z,26.00
2022-09-26T03:09:15.219Z,26.10
2022-09-26T03:11:46.975Z,26.30
2022-09-26T03:14:19.294Z,26.50
2022-09-26T03:16:50.829Z,26.60
2022-09-26T03:19:46.626Z,26.60
2022-09-26T03:22:19.101Z,26.60
2022-09-26T03:24:51.191Z,26.80
2022-09-26T03:27:22.585Z,26.90
2022-09-26T03:29:53.052Z,27.00
2022-09-26T03:32:23.827Z,27.10
2022-09-26T03:34:54.234Z,27.10
2022-09-26T03:37:24.077Z,27.10
2022-09-26T03:39:53.297Z,27.20
2022-09-26T03:42:23.504Z,27.40
2022-09-26T03:44:53.297Z,27.50
2022-09-26T03:47:23.070Z,27.80
2022-09-26T03:49:53.009Z,27.70
2022-09-26T03:52:23.422Z,27.70
2022-09-26T03:54:53.421Z,27.70
2022-09-26T03:57:23.931Z,27.70
2022-09-26T03:59:53.684Z,27.70
2022-09-26T04:02:24.257Z,27.70
2022-09-26T04:04:54.075Z,27.80
2022-09-26T04:07:23.941Z,27.60
2022-09-26T04:09:53.917Z,27.60
2022-09-26T04:12:24.025Z,27.70
2022-09-26T04:14:54.646Z,27.70
2022-09-26T04:17:24.423Z,28.00
2022-09-26T04:19:54.285Z,27.70
2022-09-26T04:22:24.310Z,27.80
2022-09-26T04:24:54.943Z,27.80
2022-09-26T04:27:25.004Z,27.70
2022-09-26T04:29:54.822Z,27.70
2022-09-26T04:32:24.600Z,27.80
2022-09-26T04:34:54.575Z,27.70
2022-09-26T04:37:24.998Z,27.70
2022-09-26T04:39:54.978Z,27.70
2022-09-26T04:42:26.798Z,27.80
2022-09-26T04:44:57.035Z,27.80
2022-09-26T04:47:26.778Z,27.60
2022-09-26T04:49:55.979Z,27.70
2022-09-26T04:52:26.401Z,27.80
2022-09-26T04:54:56.219Z,27.80
2022-09-26T04:57:26.012Z,27.90
2022-09-26T04:59:56.000Z,28.00
2022-09-26T05:02:25.924Z,28.10
2022-09-26T05:04:57.047Z,28.30
2022-09-26T05:07:29.683Z,28.40
2022-09-26T05:09:59.949Z,28.40
2022-09-26T05:12:29.785Z,28.50
2022-09-26T05:15:00.151Z,28.30
2022-09-26T05:17:30.183Z,28.30
2022-09-26T05:20:03.168Z,28.20
2022-09-26T05:22:34.398Z,28.20
2022-09-26T05:25:16.169Z,28.20
2022-09-26T05:27:46.220Z,28.20
2022-09-26T05:30:16.480Z,28.10
2022-09-26T05:32:50.145Z,28.10
2022-09-26T05:35:20.066Z,28.10
2022-09-26T05:37:50.675Z,28.00
2022-09-26T05:40:37.205Z,28.00
2022-09-26T05:43:07.299Z,27.90
2022-09-26T05:45:37.998Z,27.90
2022-09-26T05:48:08.837Z,27.90
2022-09-26T05:50:43.357Z,27.90
2022-09-26T05:53:14.084Z,27.90
2022-09-26T05:55:44.122Z,27.90
2022-09-26T05:58:16.589Z,27.90
2022-09-26T06:00:49.592Z,28.00
2022-09-26T06:03:19.839Z,27.90
2022-09-26T06:05:49.723Z,27.80
2022-09-26T06:08:19.771Z,27.90
2022-09-26T06:10:49.805Z,27.90
2022-09-26T06:13:19.547Z,27.90
2022-09-26T06:15:50.185Z,27.80
2022-09-26T06:18:20.450Z,27.80
2022-09-26T06:20:50.500Z,27.70
2022-09-26T06:23:20.427Z,27.70
2022-09-26T06:25:50.281Z,27.60
2022-09-26T06:28:20.199Z,27.50
2022-09-26T06:30:50.081Z,27.50
2022-09-26T06:33:20.209Z,27.50
2022-09-26T06:36:01.065Z,27.40
2022-09-26T06:38:31.423Z,27.40
2022-09-26T06:41:01.436Z,27.40
2022-09-26T06:43:33.141Z,27.40
2022-09-26T06:46:02.903Z,27.40
2022-09-26T06:48:32.123Z,27.30
2022-09-26T06:51:02.247Z,27.30
2022-09-26T06:53:33.107Z,27.30
2022-09-26T06:56:03.761Z,27.30
2022-09-26T06:58:33.925Z,27.20
2022-09-26T07:01:04.250Z,27.30
2022-09-26T07:03:34.491Z,27.20
2022-09-26T07:06:04.986Z,27.20
2022-09-26T07:09:00.788Z,27.20
2022-09-26T07:11:41.864Z,27.20
2022-09-26T07:14:19.125Z,27.30
2022-09-26T07:16:51.174Z,27.40
2022-09-26T07:19:21.507Z,27.30
2022-09-26T07:21:51.345Z,27.40
2022-09-26T07:24:21.296Z,27.50
2022-09-26T07:26:51.180Z,27.40
2022-09-26T07:29:21.070Z,27.20
2022-09-26T07:31:52.937Z,27.20
2022-09-26T07:34:26.693Z,27.20
2022-09-26T07:36:56.673Z,27.30
2022-09-26T07:39:26.651Z,27.40
2022-09-26T07:41:56.551Z,27.60
2022-09-26T07:45:20.443Z,27.70
2022-09-26T07:47:35.239Z,27.70
2022-09-26T07:50:15.058Z,27.60
2022-09-26T07:52:45.548Z,27.60
2022-09-26T07:55:21.999Z,27.60
2022-09-26T07:57:51.963Z,27.80
2022-09-26T08:00:23.160Z,27.80
2022-09-26T08:02:54.507Z,27.60
2022-09-26T08:05:26.275Z,27.70
2022-09-26T08:07:59.092Z,27.80
2022-09-26T08:10:28.861Z,27.90
2022-09-26T08:12:58.947Z,27.90
2022-09-26T08:15:29.297Z,27.90
2022-09-26T08:17:59.601Z,27.80
2022-09-26T08:20:32.252Z,27.90
2022-09-26T08:23:03.235Z,27.80
2022-09-26T08:25:33.588Z,27.80
2022-09-26T08:28:04.122Z,27.70
2022-09-26T08:30:34.664Z,27.70
2022-09-26T08:33:05.234Z,27.70
2022-09-26T08:35:40.664Z,27.70
2022-09-26T08:38:13.458Z,27.70
2022-09-26T08:41:05.539Z,27.70
2022-09-26T08:44:09.532Z,27.60
2022-09-26T08:47:08.593Z,27.60
2022-09-26T08:50:18.110Z,27.60
2022-09-26T08:52:59.841Z,27.60
2022-09-26T08:55:35.648Z,27.60
2022-09-26T08:58:17.379Z,27.60
2022-09-26T09:00:50.807Z,27.60
2022-09-26T09:03:46.254Z,27.60
2022-09-26T09:06:17.899Z,27.70
2022-09-26T09:08:59.654Z,27.60
2022-09-26T09:12:01.434Z,27.60
2022-09-26T09:15:23.955Z,27.70
2022-09-26T09:18:22.427Z,27.60
2022-09-26T09:21:22.055Z,27.60
2022-09-26T09:24:18.604Z,27.70
2022-09-26T09:30:32.455Z,27.70
2022-09-26T09:33:09.188Z,27.80
2022-09-26T09:35:57.849Z,27.80
2022-09-26T09:38:32.988Z,27.90
2022-09-26T09:41:14.977Z,27.90
2022-09-26T09:43:52.454Z,28.00
2022-09-26T09:46:33.476Z,28.10
2022-09-26T09:49:29.964Z,28.20
2022-09-26T09:52:35.375Z,28.20
2022-09-26T09:55:43.631Z,28.30
2022-09-26T09:58:34.749Z,28.20
2022-09-26T10:01:31.196Z,28.10
2022-09-26T10:04:34.610Z,28.10
2022-09-26T10:07:06.124Z,28.10
2022-09-26T10:09:42.616Z,28.00
2022-09-26T10:12:22.885Z,28.10
2022-09-26T10:15:03.340Z,28.00
2022-09-26T10:17:34.183Z,27.80
2022-09-26T10:20:04.773Z,27.70
2022-09-26T10:22:40.207Z,27.70
2022-09-26T10:25:23.891Z,27.70
2022-09-26T10:27:59.158Z,27.80
2022-09-26T10:30:34.552Z,27.70
2022-09-26T10:33:07.376Z,27.80
2022-09-26T10:35:48.192Z,27.80
2022-09-26T10:38:33.851Z,27.70
2022-09-26T10:41:05.690Z,27.70
2022-09-26T10:43:40.107Z,27.70
2022-09-26T10:46:16.987Z,27.70
2022-09-26T10:48:59.302Z,27.60
2022-09-26T10:51:40.207Z,27.60
2022-09-26T10:54:19.130Z,27.50
2022-09-26T10:56:57.180Z,27.50
2022-09-26T10:59:31.304Z,27.50
2022-09-26T11:02:03.728Z,27.50
2022-09-26T11:04:57.307Z,27.40
2022-09-26T11:07:37.278Z,27.30
2022-09-26T11:10:14.133Z,27.30
2022-09-26T11:13:02.237Z,27.20
2022-09-26T11:15:33.544Z,27.20
2022-09-26T11:18:04.885Z,27.10
2022-09-26T11:20:50.190Z,27.10
2022-09-26T11:23:38.586Z,27.10
2022-09-26T11:26:35.676Z,27.00
2022-09-26T11:29:39.607Z,27.00
2022-09-26T11:32:15.904Z,26.90
2022-09-26T11:34:47.044Z,26.90
2022-09-26T11:37:37.233Z,26.90
2022-09-26T11:40:34.805Z,26.80
2022-09-26T11:43:19.119Z,26.70
2022-09-26T11:46:11.158Z,26.60
2022-09-26T11:48:57.389Z,26.50
2022-09-26T11:51:48.365Z,26.40
2022-09-26T11:54:40.595Z,26.40
2022-09-26T11:57:31.145Z,26.30
2022-09-26T12:00:29.835Z,26.30
2022-09-26T12:03:33.706Z,26.20
2022-09-26T12:06:30.135Z,26.10
2022-09-26T12:09:16.966Z,26.10
2022-09-26T12:12:18.264Z,26.00
2022-09-26T12:15:12.146Z,26.00
2022-09-26T12:18:08.408Z,25.90
2022-09-26T12:21:00.231Z,25.80
2022-09-26T12:23:42.802Z,25.80
2022-09-26T12:26:32.393Z,25.80
2022-09-26T12:29:26.443Z,25.70
2022-09-26T12:32:14.796Z,25.70
2022-09-26T12:35:03.264Z,25.70
2022-09-26T12:37:55.456Z,25.70
2022-09-26T12:41:05.034Z,25.60
2022-09-26T12:44:10.063Z,25.50
2022-09-26T12:47:08.640Z,25.40
2022-09-26T12:50:05.867Z,25.50
2022-09-26T12:53:14.975Z,25.40
2022-09-26T12:56:11.158Z,25.40
2022-09-26T12:59:06.743Z,25.30
2022-09-26T13:02:05.568Z,25.30
2022-09-26T13:05:01.670Z,25.30
2022-09-26T13:07:55.793Z,25.30
2022-09-26T13:11:04.965Z,25.20
2022-09-26T13:14:00.972Z,25.20
2022-09-26T13:17:11.946Z,25.20
2022-09-26T13:20:02.036Z,25.20
2022-09-26T13:22:45.221Z,25.10
2022-09-26T13:25:22.015Z,25.10
2022-09-26T13:28:12.892Z,25.00
2022-09-26T13:31:01.723Z,25.00
2022-09-26T13:33:54.874Z,25.00
2022-09-26T13:36:26.605Z,24.90
2022-09-26T13:39:35.780Z,25.00
2022-09-26T13:42:22.927Z,24.90
2022-09-26T13:45:27.493Z,24.90
2022-09-26T13:48:12.957Z,24.90
2022-09-26T13:51:08.405Z,24.90
2022-09-26T13:53:46.196Z,24.90
2022-09-26T13:56:43.894Z,24.80
2022-09-26T13:59:36.633Z,24.80
2022-09-26T14:02:20.615Z,24.70
2022-09-26T14:04:54.357Z,24.80
2022-09-26T14:08:08.215Z,24.80
2022-09-26T14:10:42.095Z,24.80
2022-09-26T14:13:34.278Z,24.80
2022-09-26T14:16:07.206Z,24.80
2022-09-26T14:19:09.542Z,24.80
2022-09-26T14:21:46.951Z,24.80
2022-09-26T14:24:39.431Z,24.80
2022-09-26T14:27:43.711Z,24.70
2022-09-26T14:30:28.168Z,24.70
2022-09-26T14:33:04.962Z,24.70
2022-09-26T14:35:40.497Z,24.70
2022-09-26T14:38:18.863Z,24.70
2022-09-26T14:40:59.960Z,24.70
2022-09-26T14:43:33.405Z,24.80
2022-09-26T14:46:08.102Z,24.70
2022-09-26T14:48:41.651Z,24.80
2022-09-26T14:51:35.014Z,24.80
2022-09-26T14:54:25.593Z,24.80
2022-09-26T14:57:06.753Z,24.80
2022-09-26T14:59:45.232Z,24.80
2022-09-26T15:02:30.745Z,24.80
2022-09-26T15:05:17.315Z,24.80
2022-09-26T15:07:53.269Z,24.80
2022-09-26T15:10:37.587Z,24.80
2022-09-26T15:13:31.078Z,24.80
2022-09-26T15:16:22.549Z,24.80
2022-09-26T15:19:13.679Z,24.90
2022-09-26T15:21:51.140Z,24.80
2022-09-26T15:24:35.263Z,24.70
2022-09-26T15:27:29.488Z,24.70
2022-09-26T15:30:16.283Z,24.70
2022-09-26T15:32:51.218Z,24.70
2022-09-26T15:35:21.770Z,24.80
2022-09-26T15:37:52.237Z,24.70
2022-09-26T15:40:26.800Z,24.70
2022-09-26T15:43:22.469Z,24.60
2022-09-26T15:46:07.305Z,24.50
2022-09-26T15:48:46.823Z,24.50
2022-09-26T15:51:30.615Z,24.40
2022-09-26T15:54:06.297Z,24.50
2022-09-26T15:56:42.632Z,24.50
2022-09-26T15:59:20.976Z,24.40
2022-09-26T16:01:51.716Z,24.40
2022-09-26T16:04:25.848Z,24.40
2022-09-26T16:07:02.434Z,24.40
2022-09-26T16:09:36.558Z,24.40
2022-09-26T16:12:21.288Z,24.50
2022-09-26T16:14:56.942Z,24.50
2022-09-26T16:17:49.415Z,24.50
2022-09-26T16:20:31.452Z,24.50
2022-09-26T16:23:05.374Z,24.50
2022-09-26T16:25:58.496Z,24.50
2022-09-26T16:28:47.090Z,24.50
2022-09-26T16:31:26.587Z,24.50
2022-09-26T16:33:59.802Z,24.60
2022-09-26T16:36:33.310Z,24.60
2022-09-26T16:39:06.732Z,24.50
2022-09-26T16:42:01.211Z,24.50
2022-09-26T16:44:39.166Z,24.50
2022-09-26T16:47:46.482Z,24.50
2022-09-26T16:50:36.079Z,24.40
2022-09-26T16:53:11.922Z,24.40
2022-09-26T16:55:42.286Z,24.40
2022-09-26T16:58:16.792Z,24.40
2022-09-26T17:00:58.466Z,24.40
2022-09-26T17:03:32.985Z,24.40
2022-09-26T17:06:03.444Z,24.40
2022-09-26T17:08:36.801Z,24.40
2022-09-26T17:11:12.879Z,24.40
2022-09-26T17:13:44.943Z,24.30
2022-09-26T17:16:15.955Z,24.30
2022-09-26T17:18:46.888Z,24.30
2022-09-26T17:21:17.232Z,24.30
2022-09-26T17:23:47.642Z,24.20
2022-09-26T17:26:24.220Z,24.20
2022-09-26T17:28:56.481Z,24.20
2022-09-26T17:31:27.048Z,24.20
2022-09-26T17:33:57.681Z,24.30
2022-09-26T17:36:30.333Z,24.30
2022-09-26T17:39:02.616Z,24.30
2022-09-26T17:41:36.651Z,24.30
2022-09-26T17:44:07.111Z,24.30
2022-09-26T17:46:40.329Z,24.30
2022-09-26T17:49:16.410Z,24.30
2022-09-26T17:51:46.955Z,24.30
2022-09-26T17:54:22.456Z,24.30
2022-09-26T17:56:53.088Z,24.30
2022-09-26T17:59:26.394Z,24.30
2022-09-26T18:02:03.155Z,24.30
2022-09-26T18:04:34.113Z,24.20
2022-09-26T18:07:06.748Z,24.20
2022-09-26T18:09:38.583Z,24.20
2022-09-26T18:12:12.214Z,24.20
2022-09-26T18:14:43.883Z,24.10
2022-09-26T18:17:18.294Z,24.10
2022-09-26T18:19:49.081Z,24.10
2022-09-26T18:22:21.981Z,24.00
2022-09-26T18:24:54.314Z,24.00
2022-09-26T18:27:25.376Z,24.00
2022-09-26T18:29:56.937Z,24.00
2022-09-26T18:32:33.855Z,24.10
2022-09-26T18:35:04.350Z,24.10
2022-09-26T18:37:34.879Z,24.10
2022-09-26T18:40:05.400Z,24.10
2022-09-26T18:42:37.441Z,24.00
2022-09-26T18:45:10.579Z,24.00
2022-09-26T18:47:45.265Z,24.00
2022-09-26T18:50:36.576Z,24.00
2022-09-26T18:53:15.196Z,24.10
2022-09-26T18:55:55.394Z,24.10
2022-09-26T18:58:27.351Z,24.00
2022-09-26T19:01:03.079Z,24.00
2022-09-26T19:03:40.813Z,24.00
2022-09-26T19:06:18.700Z,23.90
2022-09-26T19:08:53.203Z,23.90
2022-09-26T19:11:26.782Z,23.90
2022-09-26T19:13:59.593Z,23.80
2022-09-26T19:16:30.050Z,23.80
2022-09-26T19:19:00.708Z,23.70
2022-09-26T19:21:42.101Z,23.70
2022-09-26T19:24:51.308Z,23.70
2022-09-26T19:27:26.052Z,23.60
2022-09-26T19:30:12.733Z,23.50
2022-09-26T19:32:45.896Z,23.50
2022-09-26T19:35:33.494Z,23.50
2022-09-26T19:38:05.767Z,23.40
2022-09-26T19:40:36.274Z,23.40
2022-09-26T19:43:07.793Z,23.40
2022-09-26T19:45:38.368Z,23.30
2022-09-26T19:48:13.123Z,23.30
2022-09-26T19:50:44.631Z,23.30
2022-09-26T19:53:19.798Z,23.20
2022-09-26T19:55:52.402Z,23.20
2022-09-26T19:58:27.978Z,23.20
2022-09-26T20:01:01.372Z,23.10
2022-09-26T20:03:37.540Z,23.20
2022-09-26T20:06:23.947Z,23.30
2022-09-26T20:09:01.261Z,23.30
2022-09-26T20:11:32.314Z,23.30
2022-09-26T20:14:20.058Z,23.40
2022-09-26T20:16:50.591Z,23.40
2022-09-26T20:19:41.042Z,23.50
2022-09-26T20:22:20.111Z,23.50
2022-09-26T20:24:54.261Z,23.50
2022-09-26T20:27:29.937Z,23.50
2022-09-26T20:30:11.072Z,23.50
2022-09-26T20:32:43.586Z,23.50
2022-09-26T20:35:17.620Z,23.50
2022-09-26T20:37:48.179Z,23.50
2022-09-26T20:40:24.756Z,23.50
2022-09-26T20:43:01.063Z,23.50
2022-09-26T20:45:41.371Z,23.40
2022-09-26T20:48:21.128Z,23.40
2022-09-26T20:50:52.380Z,23.40
2022-09-26T20:53:25.511Z,23.40
2022-09-26T20:55:57.287Z,23.40
2022-09-26T20:58:27.891Z,23.40
2022-09-26T21:00:58.555Z,23.40
2022-09-26T21:03:30.290Z,23.40
2022-09-26T21:06:00.623Z,23.40
2022-09-26T21:08:32.796Z,23.40
2022-09-26T21:11:03.121Z,23.30
2022-09-26T21:13:33.735Z,23.30
2022-09-26T21:16:04.267Z,23.30
2022-09-26T21:18:34.980Z,23.30
2022-09-26T21:21:08.967Z,23.30
2022-09-26T21:23:45.109Z,23.30
2022-09-26T21:26:22.697Z,23.30
2022-09-26T21:28:54.698Z,23.30
2022-09-26T21:31:35.534Z,23.30
2022-09-26T21:34:07.681Z,23.30
2022-09-26T21:36:41.919Z,23.30
2022-09-26T21:39:12.339Z,23.30
2022-09-26T21:41:42.862Z,23.30
2022-09-26T21:44:30.662Z,23.30
2022-09-26T21:47:00.907Z,23.30
2022-09-26T21:49:31.316Z,23.30
2022-09-26T21:52:12.810Z,23.30
2022-09-26T21:54:46.044Z,23.30
2022-09-26T21:57:21.264Z,23.30
2022-09-26T21:59:53.623Z,23.30
2022-09-26T22:02:24.197Z,23.30
2022-09-26T22:04:54.818Z,23.30
2022-09-26T22:07:25.383Z,23.20
2022-09-26T22:09:55.676Z,23.20
2022-09-26T22:12:26.105Z,23.20
2022-09-26T22:14:56.450Z,23.20
2022-09-26T22:17:26.807Z,23.20
2022-09-26T22:19:57.182Z,23.20
2022-09-26T22:22:28.209Z,23.10
2022-09-26T22:25:04.360Z,22.40
2022-09-26T22:27:36.478Z,23.20
2022-09-26T22:30:08.017Z,23.10
2022-09-26T22:32:38.550Z,23.10
2022-09-26T22:35:09.293Z,23.10
2022-09-26T22:37:41.740Z,23.10
2022-09-26T22:40:12.489Z,23.00
2022-09-26T22:42:42.874Z,23.00
2022-09-26T22:45:13.627Z,23.00
2022-09-26T22:47:50.668Z,23.10
2022-09-26T22:50:21.027Z,23.20
2022-09-26T22:52:51.485Z,23.20
2022-09-26T22:55:22.271Z,23.20
2022-09-26T22:57:53.720Z,23.20
2022-09-26T23:00:24.071Z,23.20
2022-09-26T23:02:54.395Z,23.10
2022-09-26T23:05:24.800Z,23.00
2022-09-26T23:07:56.796Z,23.00
2022-09-26T23:10:27.282Z,23.00
2022-09-26T23:12:57.568Z,23.00
2022-09-26T23:15:27.896Z,23.00
2022-09-26T23:17:58.366Z,22.90
2022-09-26T23:20:28.683Z,23.00
2022-09-26T23:22:59.298Z,22.90
2022-09-26T23:25:29.748Z,22.90
2022-09-26T23:28:00.076Z,22.90
2022-09-26T23:30:30.406Z,22.90
2022-09-26T23:33:00.830Z,22.90
2022-09-26T23:35:31.255Z,22.90
2022-09-26T23:38:01.568Z,22.90
2022-09-26T23:44:18.571Z,22.90
2022-09-26T23:46:48.880Z,22.90
2022-09-26T23:49:19.409Z,22.90
2022-09-26T23:51:49.913Z,22.90
2022-09-26T23:54:20.297Z,22.90
2022-09-26T23:56:50.742Z,22.90
2022-09-26T23:59:21.332Z,23.00
